sensor_id;sensor_type;location;lat;lon;timestamp;temperature;humidity
19365;DHT22;9818;48.382;10.850;2022-08-21T00:00:54;16.00;99.90
19365;DHT22;9818;48.382;10.850;2022-08-21T00:03:24;16.00;99.90
19365;DHT22;9818;48.382;10.850;2022-08-21T00:05:56;16.00;99.90
19365;DHT22;9818;48.382;10.850;2022-08-21T00:08:26;15.90;99.90
19365;DHT22;9818;48.382;10.850;2022-08-21T00:10:57;15.90;99.90
19365;DHT22;9818;48.382;10.850;2022-08-21T00:13:26;16.00;99.90
19365;DHT22;9818;48.382;10.850;2022-08-21T00:15:56;15.90;99.90
19365;DHT22;9818;48.382;10.850;2022-08-21T00:18:26;15.90;99.90
19365;DHT22;9818;48.382;10.850;2022-08-21T00:20:59;15.90;99.90
19365;DHT22;9818;48.382;10.850;2022-08-21T00:23:28;15.80;99.90
19365;DHT22;9818;48.382;10.850;2022-08-21T00:25:57;15.90;99.90
19365;DHT22;9818;48.382;10.850;2022-08-21T00:28:26;15.90;99.90
19365;DHT22;9818;48.382;10.850;2022-08-21T00:30:55;15.90;99.90
19365;DHT22;9818;48.382;10.850;2022-08-21T00:33:24;15.80;99.90
19365;DHT22;9818;48.382;10.850;2022-08-21T00:35:53;15.80;99.90
19365;DHT22;9818;48.382;10.850;2022-08-21T00:38:25;15.80;99.90
19365;DHT22;9818;48.382;10.850;2022-08-21T00:40:55;15.80;99.90
19365;DHT22;9818;48.382;10.850;2022-08-21T00:43:27;15.80;99.90
19365;DHT22;9818;48.382;10.850;2022-08-21T00:45:57;15.80;99.90
19365;DHT22;9818;48.382;10.850;2022-08-21T00:48:26;15.80;99.90
19365;DHT22;9818;48.382;10.850;2022-08-21T00:50:58;15.80;99.90
19365;DHT22;9818;48.382;10.850;2022-08-21T00:53:31;15.70;99.90
19365;DHT22;9818;48.382;10.850;2022-08-21T00:56:01;15.70;99.90
19365;DHT22;9818;48.382;10.850;2022-08-21T00:58:31;15.70;99.90
19365;DHT22;9818;48.382;10.850;2022-08-21T01:01:03;15.70;99.90
19365;DHT22;9818;48.382;10.850;2022-08-21T01:03:33;15.70;99.90
19365;DHT22;9818;48.382;10.850;2022-08-21T01:06:03;15.60;99.90
19365;DHT22;9818;48.382;10.850;2022-08-21T01:31:05;15.40;99.90
19365;DHT22;9818;48.382;10.850;2022-08-21T01:33:34;15.60;99.90
19365;DHT22;9818;48.382;10.850;2022-08-21T01:36:04;15.50;99.90
19365;DHT22;9818;48.382;10.850;2022-08-21T01:38:33;15.40;99.90
19365;DHT22;9818;48.382;10.850;2022-08-21T01:41:02;15.40;99.90
19365;DHT22;9818;48.382;10.850;2022-08-21T01:43:30;15.40;99.90
19365;DHT22;9818;48.382;10.850;2022-08-21T01:46:03;15.40;99.90
19365;DHT22;9818;48.382;10.850;2022-08-21T01:48:32;15.40;99.90
19365;DHT22;9818;48.382;10.850;2022-08-21T01:51:01;15.30;99.90
19365;DHT22;9818;48.382;10.850;2022-08-21T01:53:31;15.40;99.90
19365;DHT22;9818;48.382;10.850;2022-08-21T01:56:02;15.30;99.90
19365;DHT22;9818;48.382;10.850;2022-08-21T01:58:32;15.30;99.90
19365;DHT22;9818;48.382;10.850;2022-08-21T02:01:04;15.30;99.90
19365;DHT22;9818;48.382;10.850;2022-08-21T02:03:33;15.30;99.90
19365;DHT22;9818;48.382;10.850;2022-08-21T02:06:03;15.30;99.90
19365;DHT22;9818;48.382;10.850;2022-08-21T02:08:33;15.30;99.90
19365;DHT22;9818;48.382;10.850;2022-08-21T02:11:02;15.20;99.90
19365;DHT22;9818;48.382;10.850;2022-08-21T02:13:31;15.20;99.90
19365;DHT22;9818;48.382;10.850;2022-08-21T02:16:03;15.20;99.90
19365;DHT22;9818;48.382;10.850;2022-08-21T02:18:34;15.20;99.90
19365;DHT22;9818;48.382;10.850;2022-08-21T02:21:04;15.10;99.90
19365;DHT22;9818;48.382;10.850;2022-08-21T02:23:35;15.20;99.90
19365;DHT22;9818;48.382;10.850;2022-08-21T02:26:08;15.20;99.90
19365;DHT22;9818;48.382;10.850;2022-08-21T02:28:38;15.20;99.90
19365;DHT22;9818;48.382;10.850;2022-08-21T02:31:11;15.10;99.90
19365;DHT22;9818;48.382;10.850;2022-08-21T02:33:40;15.10;99.90
19365;DHT22;9818;48.382;10.850;2022-08-21T02:36:11;15.10;99.90
19365;DHT22;9818;48.382;10.850;2022-08-21T02:38:41;15.10;99.90
19365;DHT22;9818;48.382;10.850;2022-08-21T02:41:16;15.10;99.90
19365;DHT22;9818;48.382;10.850;2022-08-21T02:43:46;15.10;99.90
19365;DHT22;9818;48.382;10.850;2022-08-21T02:46:21;15.10;99.90
19365;DHT22;9818;48.382;10.850;2022-08-21T02:48:56;15.00;99.90
19365;DHT22;9818;48.382;10.850;2022-08-21T02:51:26;14.90;99.90
19365;DHT22;9818;48.382;10.850;2022-08-21T02:53:55;15.00;99.90
19365;DHT22;9818;48.382;10.850;2022-08-21T02:56:39;15.00;99.90
19365;DHT22;9818;48.382;10.850;2022-08-21T02:59:11;15.00;99.90
19365;DHT22;9818;48.382;10.850;2022-08-21T03:01:51;14.90;99.90
19365;DHT22;9818;48.382;10.850;2022-08-21T03:04:24;14.90;99.90
19365;DHT22;9818;48.382;10.850;2022-08-21T03:06:58;14.90;99.90
19365;DHT22;9818;48.382;10.850;2022-08-21T03:09:34;14.90;99.90
19365;DHT22;9818;48.382;10.850;2022-08-21T03:12:12;14.80;99.90
19365;DHT22;9818;48.382;10.850;2022-08-21T03:14:47;14.80;99.90
19365;DHT22;9818;48.382;10.850;2022-08-21T03:17:23;14.80;99.90
19365;DHT22;9818;48.382;10.850;2022-08-21T03:19:54;14.70;99.90
19365;DHT22;9818;48.382;10.850;2022-08-21T03:22:23;14.80;99.90
19365;DHT22;9818;48.382;10.850;2022-08-21T03:24:52;14.80;99.90
19365;DHT22;9818;48.382;10.850;2022-08-21T03:27:20;14.70;99.90
19365;DHT22;9818;48.382;10.850;2022-08-21T03:29:52;14.70;99.90
19365;DHT22;9818;48.382;10.850;2022-08-21T03:32:24;14.70;99.90
19365;DHT22;9818;48.382;10.850;2022-08-21T03:34:54;14.70;99.90
19365;DHT22;9818;48.382;10.850;2022-08-21T03:37:26;14.70;99.90
19365;DHT22;9818;48.382;10.850;2022-08-21T03:39:55;14.70;99.90
19365;DHT22;9818;48.382;10.850;2022-08-21T03:42:24;14.70;99.90
19365;DHT22;9818;48.382;10.850;2022-08-21T03:44:53;14.60;99.90
19365;DHT22;9818;48.382;10.850;2022-08-21T03:47:25;14.60;99.90
19365;DHT22;9818;48.382;10.850;2022-08-21T03:49:54;14.60;99.90
19365;DHT22;9818;48.382;10.850;2022-08-21T03:52:23;14.60;99.90
19365;DHT22;9818;48.382;10.850;2022-08-21T03:54:52;14.60;99.90
19365;DHT22;9818;48.382;10.850;2022-08-21T03:57:23;14.60;99.90
19365;DHT22;9818;48.382;10.850;2022-08-21T03:59:54;14.60;99.90
19365;DHT22;9818;48.382;10.850;2022-08-21T04:02:27;14.60;99.90
19365;DHT22;9818;48.382;10.850;2022-08-21T04:04:56;14.60;99.90
19365;DHT22;9818;48.382;10.850;2022-08-21T04:07:27;14.50;99.90
19365;DHT22;9818;48.382;10.850;2022-08-21T04:09:56;14.50;99.90
19365;DHT22;9818;48.382;10.850;2022-08-21T04:12:26;14.50;99.90
19365;DHT22;9818;48.382;10.850;2022-08-21T04:14:58;14.50;99.90
19365;DHT22;9818;48.382;10.850;2022-08-21T04:17:33;14.50;99.90
19365;DHT22;9818;48.382;10.850;2022-08-21T04:20:03;14.50;99.90
19365;DHT22;9818;48.382;10.850;2022-08-21T04:22:32;14.50;99.90
19365;DHT22;9818;48.382;10.850;2022-08-21T04:25:02;14.50;99.90
19365;DHT22;9818;48.382;10.850;2022-08-21T04:27:31;14.50;99.90
19365;DHT22;9818;48.382;10.850;2022-08-21T04:30:00;14.50;99.90
19365;DHT22;9818;48.382;10.850;2022-08-21T04:32:31;14.50;99.90
19365;DHT22;9818;48.382;10.850;2022-08-21T04:35:03;14.60;99.90
19365;DHT22;9818;48.382;10.850;2022-08-21T04:37:32;14.60;99.90
19365;DHT22;9818;48.382;10.850;2022-08-21T04:40:01;14.60;99.90
19365;DHT22;9818;48.382;10.850;2022-08-21T04:42:30;14.70;99.90
19365;DHT22;9818;48.382;10.850;2022-08-21T04:44:59;14.70;99.90
19365;DHT22;9818;48.382;10.850;2022-08-21T04:47:30;14.80;99.90
19365;DHT22;9818;48.382;10.850;2022-08-21T04:50:00;14.90;99.90
19365;DHT22;9818;48.382;10.850;2022-08-21T04:52:29;15.10;99.90
19365;DHT22;9818;48.382;10.850;2022-08-21T04:54:58;15.20;99.90
19365;DHT22;9818;48.382;10.850;2022-08-21T04:57:29;15.50;99.90
19365;DHT22;9818;48.382;10.850;2022-08-21T04:59:58;16.10;99.90
19365;DHT22;9818;48.382;10.850;2022-08-21T05:02:27;16.90;99.90
19365;DHT22;9818;48.382;10.850;2022-08-21T05:05:02;17.70;99.90
19365;DHT22;9818;48.382;10.850;2022-08-21T05:07:32;18.40;99.90
19365;DHT22;9818;48.382;10.850;2022-08-21T05:10:04;19.10;99.90
19365;DHT22;9818;48.382;10.850;2022-08-21T05:12:34;19.50;99.90
19365;DHT22;9818;48.382;10.850;2022-08-21T05:15:04;19.90;99.90
19365;DHT22;9818;48.382;10.850;2022-08-21T05:17:32;20.60;99.90
19365;DHT22;9818;48.382;10.850;2022-08-21T05:20:04;20.90;99.90
19365;DHT22;9818;48.382;10.850;2022-08-21T05:22:33;21.80;99.90
19365;DHT22;9818;48.382;10.850;2022-08-21T05:25:03;22.10;99.90
19365;DHT22;9818;48.382;10.850;2022-08-21T05:27:32;22.50;99.90
19365;DHT22;9818;48.382;10.850;2022-08-21T05:30:01;22.40;99.90
19365;DHT22;9818;48.382;10.850;2022-08-21T05:32:30;23.00;99.90
19365;DHT22;9818;48.382;10.850;2022-08-21T05:34:59;23.40;99.90
19365;DHT22;9818;48.382;10.850;2022-08-21T05:37:30;23.70;99.90
19365;DHT22;9818;48.382;10.850;2022-08-21T05:39:59;24.20;99.90
19365;DHT22;9818;48.382;10.850;2022-08-21T05:42:28;23.80;99.90
19365;DHT22;9818;48.382;10.850;2022-08-21T05:44:57;24.20;99.90
19365;DHT22;9818;48.382;10.850;2022-08-21T05:47:26;24.20;99.90
19365;DHT22;9818;48.382;10.850;2022-08-21T05:49:55;24.50;99.90
19365;DHT22;9818;48.382;10.850;2022-08-21T05:52:23;24.50;99.90
19365;DHT22;9818;48.382;10.850;2022-08-21T05:54:54;25.00;99.90
19365;DHT22;9818;48.382;10.850;2022-08-21T05:57:23;25.40;99.90
19365;DHT22;9818;48.382;10.850;2022-08-21T05:59:52;25.00;99.90
19365;DHT22;9818;48.382;10.850;2022-08-21T06:02:21;25.10;99.90
19365;DHT22;9818;48.382;10.850;2022-08-21T06:04:50;25.20;99.90
19365;DHT22;9818;48.382;10.850;2022-08-21T06:07:18;24.80;99.90
19365;DHT22;9818;48.382;10.850;2022-08-21T06:09:47;24.80;99.90
19365;DHT22;9818;48.382;10.850;2022-08-21T06:12:18;25.20;99.90
19365;DHT22;9818;48.382;10.850;2022-08-21T06:14:46;25.30;99.90
19365;DHT22;9818;48.382;10.850;2022-08-21T06:17:15;26.20;99.90
19365;DHT22;9818;48.382;10.850;2022-08-21T06:19:44;26.00;99.90
19365;DHT22;9818;48.382;10.850;2022-08-21T06:22:12;26.60;99.90
19365;DHT22;9818;48.382;10.850;2022-08-21T06:24:41;27.80;99.90
19365;DHT22;9818;48.382;10.850;2022-08-21T06:27:09;27.30;99.90
19365;DHT22;9818;48.382;10.850;2022-08-21T06:29:41;26.80;99.90
19365;DHT22;9818;48.382;10.850;2022-08-21T06:32:10;27.80;99.90
19365;DHT22;9818;48.382;10.850;2022-08-21T06:34:39;27.40;99.90
19365;DHT22;9818;48.382;10.850;2022-08-21T06:37:08;28.30;99.90
19365;DHT22;9818;48.382;10.850;2022-08-21T06:39:36;28.30;99.90
19365;DHT22;9818;48.382;10.850;2022-08-21T06:42:05;29.10;99.90
19365;DHT22;9818;48.382;10.850;2022-08-21T06:44:34;28.70;99.90
19365;DHT22;9818;48.382;10.850;2022-08-21T06:47:06;29.50;99.90
19365;DHT22;9818;48.382;10.850;2022-08-21T06:49:35;30.00;99.90
19365;DHT22;9818;48.382;10.850;2022-08-21T06:52:07;31.50;99.90
19365;DHT22;9818;48.382;10.850;2022-08-21T06:54:36;31.30;99.90
19365;DHT22;9818;48.382;10.850;2022-08-21T06:57:05;32.10;99.90
19365;DHT22;9818;48.382;10.850;2022-08-21T06:59:34;31.70;99.90
19365;DHT22;9818;48.382;10.850;2022-08-21T07:02:06;30.30;99.90
19365;DHT22;9818;48.382;10.850;2022-08-21T07:04:35;30.10;99.90
19365;DHT22;9818;48.382;10.850;2022-08-21T07:07:04;30.90;99.90
19365;DHT22;9818;48.382;10.850;2022-08-21T07:09:33;32.40;99.90
19365;DHT22;9818;48.382;10.850;2022-08-21T07:12:02;31.60;99.90
19365;DHT22;9818;48.382;10.850;2022-08-21T07:14:31;31.90;99.90
19365;DHT22;9818;48.382;10.850;2022-08-21T07:17:00;31.60;99.90
19365;DHT22;9818;48.382;10.850;2022-08-21T07:19:31;30.20;99.90
19365;DHT22;9818;48.382;10.850;2022-08-21T07:22:02;31.10;99.90
19365;DHT22;9818;48.382;10.850;2022-08-21T07:24:32;33.00;99.90
19365;DHT22;9818;48.382;10.850;2022-08-21T07:27:01;32.60;99.90
19365;DHT22;9818;48.382;10.850;2022-08-21T07:29:30;33.10;99.90
19365;DHT22;9818;48.382;10.850;2022-08-21T07:31:59;35.60;99.90
19365;DHT22;9818;48.382;10.850;2022-08-21T07:34:28;36.90;99.90
19365;DHT22;9818;48.382;10.850;2022-08-21T07:36:59;36.60;93.80
19365;DHT22;9818;48.382;10.850;2022-08-21T07:39:28;36.40;93.10
19365;DHT22;9818;48.382;10.850;2022-08-21T07:41:56;36.10;95.00
19365;DHT22;9818;48.382;10.850;2022-08-21T07:44:25;34.70;99.10
19365;DHT22;9818;48.382;10.850;2022-08-21T07:46:54;32.80;99.90
19365;DHT22;9818;48.382;10.850;2022-08-21T07:49:25;32.20;99.90
19365;DHT22;9818;48.382;10.850;2022-08-21T07:51:54;34.40;99.90
19365;DHT22;9818;48.382;10.850;2022-08-21T07:54:26;35.90;99.90
19365;DHT22;9818;48.382;10.850;2022-08-21T07:56:55;36.50;88.90
19365;DHT22;9818;48.382;10.850;2022-08-21T07:59:24;36.20;92.40
19365;DHT22;9818;48.382;10.850;2022-08-21T08:01:53;35.80;88.50
19365;DHT22;9818;48.382;10.850;2022-08-21T08:04:22;36.10;87.90
19365;DHT22;9818;48.382;10.850;2022-08-21T08:06:51;35.40;74.80
19365;DHT22;9818;48.382;10.850;2022-08-21T08:09:20;31.30;99.90
19365;DHT22;9818;48.382;10.850;2022-08-21T08:11:51;33.60;99.90
19365;DHT22;9818;48.382;10.850;2022-08-21T08:14:20;33.90;96.90
19365;DHT22;9818;48.382;10.850;2022-08-21T08:16:49;35.80;87.60
19365;DHT22;9818;48.382;10.850;2022-08-21T08:19:18;36.00;96.20
19365;DHT22;9818;48.382;10.850;2022-08-21T08:21:47;33.90;99.90
19365;DHT22;9818;48.382;10.850;2022-08-21T08:24:15;34.10;99.90
19365;DHT22;9818;48.382;10.850;2022-08-21T08:26:44;33.70;92.30
19365;DHT22;9818;48.382;10.850;2022-08-21T08:29:15;29.40;99.90
19365;DHT22;9818;48.382;10.850;2022-08-21T08:31:43;32.20;99.90
19365;DHT22;9818;48.382;10.850;2022-08-21T08:34:12;34.60;99.90
19365;DHT22;9818;48.382;10.850;2022-08-21T08:36:40;33.60;99.90
19365;DHT22;9818;48.382;10.850;2022-08-21T08:39:09;33.20;99.90
19365;DHT22;9818;48.382;10.850;2022-08-21T08:41:37;35.00;99.90
19365;DHT22;9818;48.382;10.850;2022-08-21T08:44:06;35.80;78.80
19365;DHT22;9818;48.382;10.850;2022-08-21T08:46:39;30.00;99.90
19365;DHT22;9818;48.382;10.850;2022-08-21T08:49:10;28.70;99.90
19365;DHT22;9818;48.382;10.850;2022-08-21T08:51:45;28.00;99.90
19365;DHT22;9818;48.382;10.850;2022-08-21T08:54:19;30.80;99.90
19365;DHT22;9818;48.382;10.850;2022-08-21T08:56:51;30.60;99.90
19365;DHT22;9818;48.382;10.850;2022-08-21T08:59:25;29.00;99.90
19365;DHT22;9818;48.382;10.850;2022-08-21T09:01:57;30.40;99.90
19365;DHT22;9818;48.382;10.850;2022-08-21T09:04:27;32.90;99.90
19365;DHT22;9818;48.382;10.850;2022-08-21T09:07:05;34.60;93.10
19365;DHT22;9818;48.382;10.850;2022-08-21T09:09:54;34.70;99.10
19365;DHT22;9818;48.382;10.850;2022-08-21T09:12:33;34.30;98.90
19365;DHT22;9818;48.382;10.850;2022-08-21T09:15:09;34.30;97.60
19365;DHT22;9818;48.382;10.850;2022-08-21T09:17:58;31.70;99.90
19365;DHT22;9818;48.382;10.850;2022-08-21T09:20:33;33.10;99.20
19365;DHT22;9818;48.382;10.850;2022-08-21T09:23:11;33.00;95.10
19365;DHT22;9818;48.382;10.850;2022-08-21T09:25:50;32.00;99.60
19365;DHT22;9818;48.382;10.850;2022-08-21T09:28:21;30.60;99.90
19365;DHT22;9818;48.382;10.850;2022-08-21T09:30:50;29.00;99.90
19365;DHT22;9818;48.382;10.850;2022-08-21T09:33:26;27.80;99.90
19365;DHT22;9818;48.382;10.850;2022-08-21T09:35:56;27.50;99.90
19365;DHT22;9818;48.382;10.850;2022-08-21T09:38:29;30.40;99.90
19365;DHT22;9818;48.382;10.850;2022-08-21T09:41:01;32.70;96.90
19365;DHT22;9818;48.382;10.850;2022-08-21T09:43:31;33.40;96.00
19365;DHT22;9818;48.382;10.850;2022-08-21T09:46:06;35.20;88.40
19365;DHT22;9818;48.382;10.850;2022-08-21T09:48:44;35.20;78.40
19365;DHT22;9818;48.382;10.850;2022-08-21T09:51:15;30.80;91.40
19365;DHT22;9818;48.382;10.850;2022-08-21T09:53:47;31.20;98.20
19365;DHT22;9818;48.382;10.850;2022-08-21T09:56:20;32.60;99.90
19365;DHT22;9818;48.382;10.850;2022-08-21T09:59:17;34.00;87.80
19365;DHT22;9818;48.382;10.850;2022-08-21T10:01:49;32.90;72.30
19365;DHT22;9818;48.382;10.850;2022-08-21T10:04:28;31.30;94.70
19365;DHT22;9818;48.382;10.850;2022-08-21T10:07:07;33.20;84.80
19365;DHT22;9818;48.382;10.850;2022-08-21T10:09:37;35.00;70.30
19365;DHT22;9818;48.382;10.850;2022-08-21T10:12:13;35.60;54.20
19365;DHT22;9818;48.382;10.850;2022-08-21T10:14:50;34.30;38.70
19365;DHT22;9818;48.382;10.850;2022-08-21T10:17:27;33.60;65.60
19365;DHT22;9818;48.382;10.850;2022-08-21T10:20:05;32.80;82.20
19365;DHT22;9818;48.382;10.850;2022-08-21T10:22:44;31.70;78.70
19365;DHT22;9818;48.382;10.850;2022-08-21T10:25:19;33.80;61.10
19365;DHT22;9818;48.382;10.850;2022-08-21T10:27:57;34.50;43.10
19365;DHT22;9818;48.382;10.850;2022-08-21T10:30:36;33.30;62.40
19365;DHT22;9818;48.382;10.850;2022-08-21T10:33:20;35.40;52.20
19365;DHT22;9818;48.382;10.850;2022-08-21T10:36:04;33.40;48.30
19365;DHT22;9818;48.382;10.850;2022-08-21T10:39:02;29.80;77.70
19365;DHT22;9818;48.382;10.850;2022-08-21T10:41:47;30.30;72.10
19365;DHT22;9818;48.382;10.850;2022-08-21T10:44:27;29.80;76.30
19365;DHT22;9818;48.382;10.850;2022-08-21T10:47:01;29.90;80.70
19365;DHT22;9818;48.382;10.850;2022-08-21T10:49:39;32.00;66.40
19365;DHT22;9818;48.382;10.850;2022-08-21T10:52:28;32.20;64.70
19365;DHT22;9818;48.382;10.850;2022-08-21T10:55:00;34.30;32.10
19365;DHT22;9818;48.382;10.850;2022-08-21T10:57:33;32.30;52.70
19365;DHT22;9818;48.382;10.850;2022-08-21T11:00:04;33.40;45.40
19365;DHT22;9818;48.382;10.850;2022-08-21T11:02:37;33.10;41.80
19365;DHT22;9818;48.382;10.850;2022-08-21T11:05:12;32.90;48.80
19365;DHT22;9818;48.382;10.850;2022-08-21T11:07:48;31.90;51.80
19365;DHT22;9818;48.382;10.850;2022-08-21T11:10:22;30.70;61.50
19365;DHT22;9818;48.382;10.850;2022-08-21T11:12:54;29.90;71.90
19365;DHT22;9818;48.382;10.850;2022-08-21T11:15:30;30.70;61.00
19365;DHT22;9818;48.382;10.850;2022-08-21T11:18:13;31.00;56.40
19365;DHT22;9818;48.382;10.850;2022-08-21T11:20:49;29.40;58.20
19365;DHT22;9818;48.382;10.850;2022-08-21T11:23:22;26.60;93.20
19365;DHT22;9818;48.382;10.850;2022-08-21T11:25:55;25.50;99.90
19365;DHT22;9818;48.382;10.850;2022-08-21T11:28:26;26.20;99.40
19365;DHT22;9818;48.382;10.850;2022-08-21T11:30:59;26.80;98.10
19365;DHT22;9818;48.382;10.850;2022-08-21T11:33:33;27.50;91.10
19365;DHT22;9818;48.382;10.850;2022-08-21T11:36:09;28.00;86.80
19365;DHT22;9818;48.382;10.850;2022-08-21T11:38:51;28.20;79.10
19365;DHT22;9818;48.382;10.850;2022-08-21T11:41:28;28.20;87.20
19365;DHT22;9818;48.382;10.850;2022-08-21T11:44:08;27.60;91.80
19365;DHT22;9818;48.382;10.850;2022-08-21T11:46:44;28.20;90.40
19365;DHT22;9818;48.382;10.850;2022-08-21T11:49:31;28.30;83.50
19365;DHT22;9818;48.382;10.850;2022-08-21T11:52:05;27.80;87.00
19365;DHT22;9818;48.382;10.850;2022-08-21T11:54:40;27.00;90.70
19365;DHT22;9818;48.382;10.850;2022-08-21T11:57:17;26.70;92.10
19365;DHT22;9818;48.382;10.850;2022-08-21T11:59:53;27.50;87.50
19365;DHT22;9818;48.382;10.850;2022-08-21T12:02:36;27.80;86.40
19365;DHT22;9818;48.382;10.850;2022-08-21T12:05:08;28.10;87.40
19365;DHT22;9818;48.382;10.850;2022-08-21T12:07:39;28.00;77.20
19365;DHT22;9818;48.382;10.850;2022-08-21T12:10:14;27.70;76.80
19365;DHT22;9818;48.382;10.850;2022-08-21T12:12:46;27.80;78.90
19365;DHT22;9818;48.382;10.850;2022-08-21T12:18:02;27.00;87.30
19365;DHT22;9818;48.382;10.850;2022-08-21T12:20:38;26.30;91.30
19365;DHT22;9818;48.382;10.850;2022-08-21T12:23:27;25.70;95.50
19365;DHT22;9818;48.382;10.850;2022-08-21T12:26:13;25.70;94.80
19365;DHT22;9818;48.382;10.850;2022-08-21T12:28:42;25.40;99.60
19365;DHT22;9818;48.382;10.850;2022-08-21T12:31:17;25.30;97.10
19365;DHT22;9818;48.382;10.850;2022-08-21T12:33:49;26.20;95.70
19365;DHT22;9818;48.382;10.850;2022-08-21T12:36:20;26.80;90.70
19365;DHT22;9818;48.382;10.850;2022-08-21T12:38:51;25.70;90.80
19365;DHT22;9818;48.382;10.850;2022-08-21T12:41:24;25.20;95.90
19365;DHT22;9818;48.382;10.850;2022-08-21T12:43:56;25.60;92.40
19365;DHT22;9818;48.382;10.850;2022-08-21T12:46:27;25.40;93.20
19365;DHT22;9818;48.382;10.850;2022-08-21T12:48:56;25.60;93.40
19365;DHT22;9818;48.382;10.850;2022-08-21T12:51:26;26.10;84.20
19365;DHT22;9818;48.382;10.850;2022-08-21T12:53:57;26.50;85.20
19365;DHT22;9818;48.382;10.850;2022-08-21T12:56:29;25.90;84.60
19365;DHT22;9818;48.382;10.850;2022-08-21T12:59:00;26.30;85.50
19365;DHT22;9818;48.382;10.850;2022-08-21T13:01:31;26.60;86.10
19365;DHT22;9818;48.382;10.850;2022-08-21T13:04:01;26.70;87.50
19365;DHT22;9818;48.382;10.850;2022-08-21T13:06:32;26.60;80.20
19365;DHT22;9818;48.382;10.850;2022-08-21T13:09:03;26.00;81.60
19365;DHT22;9818;48.382;10.850;2022-08-21T13:11:35;25.90;90.80
19365;DHT22;9818;48.382;10.850;2022-08-21T13:14:04;26.80;92.20
19365;DHT22;9818;48.382;10.850;2022-08-21T13:16:32;26.80;81.70
19365;DHT22;9818;48.382;10.850;2022-08-21T13:19:03;27.00;88.00
19365;DHT22;9818;48.382;10.850;2022-08-21T13:21:32;27.10;87.30
19365;DHT22;9818;48.382;10.850;2022-08-21T13:24:13;27.00;85.50
19365;DHT22;9818;48.382;10.850;2022-08-21T13:26:45;27.20;84.80
19365;DHT22;9818;48.382;10.850;2022-08-21T13:29:15;27.10;75.40
19365;DHT22;9818;48.382;10.850;2022-08-21T13:31:47;27.40;80.50
19365;DHT22;9818;48.382;10.850;2022-08-21T13:34:15;28.00;78.10
19365;DHT22;9818;48.382;10.850;2022-08-21T13:36:46;27.80;76.80
19365;DHT22;9818;48.382;10.850;2022-08-21T13:39:16;27.60;76.20
19365;DHT22;9818;48.382;10.850;2022-08-21T13:41:49;27.50;75.20
19365;DHT22;9818;48.382;10.850;2022-08-21T13:44:19;27.70;78.40
19365;DHT22;9818;48.382;10.850;2022-08-21T13:46:52;27.80;76.50
19365;DHT22;9818;48.382;10.850;2022-08-21T13:49:23;28.10;75.70
19365;DHT22;9818;48.382;10.850;2022-08-21T13:51:54;28.30;75.00
19365;DHT22;9818;48.382;10.850;2022-08-21T13:54:23;27.80;73.20
19365;DHT22;9818;48.382;10.850;2022-08-21T13:56:55;28.10;76.40
19365;DHT22;9818;48.382;10.850;2022-08-21T13:59:25;27.90;77.50
19365;DHT22;9818;48.382;10.850;2022-08-21T14:01:55;28.10;75.60
19365;DHT22;9818;48.382;10.850;2022-08-21T14:04:26;28.20;80.30
19365;DHT22;9818;48.382;10.850;2022-08-21T14:06:55;28.60;75.40
19365;DHT22;9818;48.382;10.850;2022-08-21T14:09:26;28.50;72.50
19365;DHT22;9818;48.382;10.850;2022-08-21T14:11:58;28.30;75.00
19365;DHT22;9818;48.382;10.850;2022-08-21T14:14:29;28.30;73.80
19365;DHT22;9818;48.382;10.850;2022-08-21T14:16:59;28.20;71.20
19365;DHT22;9818;48.382;10.850;2022-08-21T14:19:35;27.70;72.10
19365;DHT22;9818;48.382;10.850;2022-08-21T14:24:48;26.50;90.30
19365;DHT22;9818;48.382;10.850;2022-08-21T14:27:19;27.30;85.60
19365;DHT22;9818;48.382;10.850;2022-08-21T14:29:48;27.40;85.90
19365;DHT22;9818;48.382;10.850;2022-08-21T14:32:19;27.80;85.50
19365;DHT22;9818;48.382;10.850;2022-08-21T14:34:47;28.10;81.70
19365;DHT22;9818;48.382;10.850;2022-08-21T14:37:16;27.60;90.60
19365;DHT22;9818;48.382;10.850;2022-08-21T14:39:44;27.20;92.80
19365;DHT22;9818;48.382;10.850;2022-08-21T14:42:13;26.90;94.10
19365;DHT22;9818;48.382;10.850;2022-08-21T14:44:44;26.90;95.80
19365;DHT22;9818;48.382;10.850;2022-08-21T14:47:12;26.30;97.00
19365;DHT22;9818;48.382;10.850;2022-08-21T14:49:41;25.70;99.90
19365;DHT22;9818;48.382;10.850;2022-08-21T14:52:10;25.50;99.90
19365;DHT22;9818;48.382;10.850;2022-08-21T14:54:38;25.70;99.90
19365;DHT22;9818;48.382;10.850;2022-08-21T14:57:07;26.20;99.00
19365;DHT22;9818;48.382;10.850;2022-08-21T14:59:37;25.10;99.90
19365;DHT22;9818;48.382;10.850;2022-08-21T15:02:09;24.60;99.90
19365;DHT22;9818;48.382;10.850;2022-08-21T15:04:38;25.40;99.90
19365;DHT22;9818;48.382;10.850;2022-08-21T15:07:07;25.60;99.90
19365;DHT22;9818;48.382;10.850;2022-08-21T15:09:35;26.10;99.90
19365;DHT22;9818;48.382;10.850;2022-08-21T15:12:04;25.90;99.90
19365;DHT22;9818;48.382;10.850;2022-08-21T15:14:35;25.10;99.90
19365;DHT22;9818;48.382;10.850;2022-08-21T15:17:05;25.00;99.90
19365;DHT22;9818;48.382;10.850;2022-08-21T15:19:37;24.90;99.90
19365;DHT22;9818;48.382;10.850;2022-08-21T15:22:06;25.00;99.90
19365;DHT22;9818;48.382;10.850;2022-08-21T15:24:35;25.50;99.90
19365;DHT22;9818;48.382;10.850;2022-08-21T15:27:03;25.70;99.90
19365;DHT22;9818;48.382;10.850;2022-08-21T15:29:34;26.20;99.90
19365;DHT22;9818;48.382;10.850;2022-08-21T15:32:14;26.50;99.90
19365;DHT22;9818;48.382;10.850;2022-08-21T15:34:46;26.90;97.90
19365;DHT22;9818;48.382;10.850;2022-08-21T15:37:14;26.70;96.30
19365;DHT22;9818;48.382;10.850;2022-08-21T15:39:43;27.10;94.20
19365;DHT22;9818;48.382;10.850;2022-08-21T15:42:11;27.20;91.40
19365;DHT22;9818;48.382;10.850;2022-08-21T15:44:40;27.30;89.50
19365;DHT22;9818;48.382;10.850;2022-08-21T15:47:11;27.50;90.30
19365;DHT22;9818;48.382;10.850;2022-08-21T15:49:40;27.50;90.20
19365;DHT22;9818;48.382;10.850;2022-08-21T15:52:13;27.70;90.30
19365;DHT22;9818;48.382;10.850;2022-08-21T15:54:42;27.60;90.50
19365;DHT22;9818;48.382;10.850;2022-08-21T15:57:11;27.50;89.90
19365;DHT22;9818;48.382;10.850;2022-08-21T15:59:40;27.20;91.90
19365;DHT22;9818;48.382;10.850;2022-08-21T16:02:11;26.10;98.80
19365;DHT22;9818;48.382;10.850;2022-08-21T16:04:40;26.30;96.40
19365;DHT22;9818;48.382;10.850;2022-08-21T16:07:09;26.50;95.80
19365;DHT22;9818;48.382;10.850;2022-08-21T16:09:40;25.30;99.90
19365;DHT22;9818;48.382;10.850;2022-08-21T16:12:09;25.10;99.90
19365;DHT22;9818;48.382;10.850;2022-08-21T16:14:39;24.80;99.90
19365;DHT22;9818;48.382;10.850;2022-08-21T16:17:07;24.80;99.90
19365;DHT22;9818;48.382;10.850;2022-08-21T16:19:36;24.90;99.90
19365;DHT22;9818;48.382;10.850;2022-08-21T16:22:04;24.90;99.90
19365;DHT22;9818;48.382;10.850;2022-08-21T16:24:33;24.90;99.90